Anaktuvuk, Alaska
Current Conditions -  °F | °C
As of 6:36 AM on Friday 24 Oct 2014 (Local Time) from PAKP Reporting Station
Overcast Overcast  
Wind Chill:   Ceiling: 3500
Heat Index: 19°   Visibility: 7mi
Dew Point: 12°   Wind: 13mph
Humidity: 74%   Direction: 230°SW
Pressure: 29.6"   Gusts: NA
Location:  68.565°N, 152.085°W
Report Text: PAKP 241436Z AUTO 23011KT 7SM OVC035 M07/M11 A2960 RMK AO1
Loading
Personal Weather Stations






























Interactive Weather Map
Tropical Storm Tracking
New forecast layout! Learn more

10-Day Weather Forecast

Advertisements
Track Severe Weather on mobile